Time;durP1;ratioP1;P1;durP2;ratioP2;P2;SDS_P1;SDS_P2;PMS_P1;PMS_P2;Temp;Humidity;BMP_temperature;BMP_pressure;BME280_temperature;BME280_humidity;BME280_pressure;Samples;Min_cycle;Max_cycle;Signal;HPM_P1;HPM_P2
2023/07/22 05:23:05;;;;;;;;;;;;;;;;;;6123750;22;19919;-88
2023/07/22 05:25:30;;;;;;;;;;;;;;;;;;5049944;28;19929;-88
2023/07/22 05:27:56;;;;;;;;;;;;;;;;;;5049102;28;19967;-88
2023/07/22 05:30:21;;;;;;;;;;;;;;;;;;5052832;28;19917;-88
2023/07/22 05:32:47;;;;;;;;;;;;;;;;;;5053879;28;20313;-89
2023/07/22 05:35:12;;;;;;;;;;;;;;;;;;5034255;28;19917;-89
2023/07/22 05:37:37;;;;;;;;;;;;;;;;;;5034640;28;20391;-89
2023/07/22 05:40:03;;;;;;;;;;;;;;;;;;5036547;28;19940;-90
2023/07/22 05:42:28;;;;;;;;;;;;;;;;;;5047118;28;19920;-89
2023/07/22 05:44:55;;;;;;;;;;;;;;;;;;5055600;28;19963;-90
2023/07/22 05:47:20;;;;;;;;;;;;;;;;;;5054568;28;19924;-89
2023/07/22 05:49:45;;;;;;;;;;;;;;;;;;5043391;28;19977;-88
2023/07/22 05:52:11;;;;;;;;;;;;;;;;;;5023454;28;20327;-89
2023/07/22 05:54:36;;;;;;;;;;;;;;;;;;5027887;28;19917;-89
2023/07/22 05:57:03;;;;;;;;;;;;;;;;;;5034269;28;19917;-88
2023/07/22 05:59:29;;;;;;;;;;;;;;;;;;5039798;28;19917;-88
2023/07/22 06:01:54;;;;;;;;;;;;;;;;;;5052869;28;20386;-88
2023/07/22 06:04:20;;;;;;;;;;;;;;;;;;5035930;28;20303;-93
2023/07/22 06:06:45;;;;;;;;;;;;;;;;;;5035808;28;19917;-92
2023/07/22 06:09:10;;;;;;;;;;;;;;;;;;5034865;28;19996;-92
2023/07/22 06:11:36;;;;;;;;;;;;;;;;;;5034991;28;19924;-93
2023/07/22 06:14:02;;;;;;;;;;;;;;;;;;5035630;28;20360;-93
2023/07/22 06:16:27;;;;;;;;;;;;;;;;;;5036211;28;20009;-89
2023/07/22 06:18:53;;;;;;;;;;;;;;;;;;5035652;28;19956;-85
2023/07/22 06:21:59;;;;;;;;;;;;;;;;;;5092891;27;19999;-96
2023/07/22 06:24:24;;;;;;;;;;;;;;;;;;5090419;28;19974;-90
2023/07/22 06:26:50;;;;;;;;;;;;;;;;;;5091846;28;19988;-90
2023/07/22 06:29:15;;;;;;;;;;;;;;;;;;5092510;28;20450;-92
2023/07/22 06:31:41;;;;;;;;;;;;;;;;;;5090305;28;19920;-88
2023/07/22 06:34:06;;;;;;;;;;;;;;;;;;5091663;28;19916;-94
2023/07/22 06:36:31;;;;;;;;;;;;;;;;;;5092020;28;19923;-88
2023/07/22 06:38:57;;;;;;;;;;;;;;;;;;5091233;28;19916;-90
2023/07/22 06:41:24;;;;;;;;;;;;;;;;;;5091161;28;20015;-90
2023/07/22 06:43:50;;;;;;;;;;;;;;;;;;5089986;28;20371;-91
2023/07/22 06:46:16;;;;;;;;;;;;;;;;;;5090338;28;19942;-94
2023/07/22 06:48:41;;;;;;;;;;;;;;;;;;5091053;28;20044;-96
2023/07/22 06:51:07;;;;;;;;;;;;;;;;;;5093356;28;19983;-96
2023/07/22 06:53:33;;;;;;;;;;;;;;;;;;5096083;28;19923;-96
2023/07/22 06:55:58;;;;;;;;;;;;;;;;;;5091747;28;20007;-89
2023/07/22 06:58:24;;;;;;;;;;;;;;;;;;5091379;28;19917;-89
2023/07/22 07:00:55;;;;;;;;;;;;;;;;;;5089706;28;19916;-90
2023/07/22 07:03:21;;;;;;;;;;;;;;;;;;5091324;28;19917;-90
2023/07/22 07:05:54;;;;;;;;;;;;;;;;;;5089713;28;20351;-90
2023/07/22 07:08:19;;;;;;;;;;;;;;;;;;5089495;28;20370;-89
2023/07/22 07:10:44;;;;;;;;;;;;;;;;;;5089784;28;19921;-89
2023/07/22 07:13:10;;;;;;;;;;;;;;;;;;5091113;28;19917;-90
2023/07/22 07:15:35;;;;;;;;;;;;;;;;;;5089965;28;19947;-90
2023/07/22 07:18:01;;;;;;;;;;;;;;;;;;5090719;28;20347;-90
2023/07/22 07:20:26;;;;;;;;;;;;;;;;;;5106038;27;19919;-93
2023/07/22 07:22:51;;;;;;;;;;;;;;;;;;5112734;28;20285;-95
2023/07/22 07:25:17;;;;;;;;;;;;;;;;;;5124939;28;19916;-95
2023/07/22 07:27:42;;;;;;;;;;;;;;;;;;5131240;28;19915;-94
2023/07/22 07:30:08;;;;;;;;;;;;;;;;;;5113306;28;19967;-93
2023/07/22 07:32:34;;;;;;;;;;;;;;;;;;5101063;28;19920;-94
2023/07/22 07:34:59;;;;;;;;;;;;;;;;;;5097060;28;19924;-95
2023/07/22 07:37:25;;;;;;;;;;;;;;;;;;5104029;28;19941;-94
2023/07/22 07:39:50;;;;;;;;;;;;;;;;;;5116960;28;19938;-94
2023/07/22 07:42:16;;;;;;;;;;;;;;;;;;5116906;28;19922;-94
2023/07/22 07:44:41;;;;;;;;;;;;;;;;;;5117303;28;19916;-94
2023/07/22 07:47:06;;;;;;;;;;;;;;;;;;5117095;28;19939;-95
2023/07/22 07:49:33;;;;;;;;;;;;;;;;;;5116941;28;19923;-93
2023/07/22 07:51:58;;;;;;;;;;;;;;;;;;5117563;28;20002;-95
2023/07/22 07:54:23;;;;;;;;;;;;;;;;;;5110593;28;19963;-95
2023/07/22 07:56:49;;;;;;;;;;;;;;;;;;5096192;28;19920;-95
2023/07/22 07:59:14;;;;;;;;;;;;;;;;;;5096249;28;19947;-95
2023/07/22 08:01:41;;;;;;;;;;;;;;;;;;5096529;28;19926;-94
2023/07/22 08:04:07;;;;;;;;;;;;;;;;;;5097103;28;19916;-94
2023/07/22 08:06:33;;;;;;;;;;;;;;;;;;5096834;28;19916;-94
2023/07/22 08:08:58;;;;;;;;;;;;;;;;;;5095875;28;20027;-94
2023/07/22 08:11:24;;;;;;;;;;;;;;;;;;5096039;28;20363;-94
2023/07/22 08:13:51;;;;;;;;;;;;;;;;;;5096448;28;20034;-90
2023/07/22 08:16:16;;;;;;;;;;;;;;;;;;5097361;28;19969;-95
2023/07/22 08:18:41;;;;;;;;;;;;;;;;;;5096687;28;19920;-95
2023/07/22 08:21:07;;;;;;;;;;;;;;;;;;5099921;28;20370;-96
2023/07/22 08:23:33;;;;;;;;;;;;;;;;;;5096777;28;19923;-92
2023/07/22 08:25:58;;;;;;;;;;;;;;;;;;5096102;28;19916;-92
2023/07/22 08:28:24;;;;;;;;;;;;;;;;;;5107404;28;19922;-92
2023/07/22 08:30:49;;;;;;;;;;;;;;;;;;5116855;28;19916;-92
2023/07/22 08:33:16;;;;;;;;;;;;;;;;;;5114911;28;19948;-91
2023/07/22 08:35:41;;;;;;;;;;;;;;;;;;5116724;28;19916;-92
2023/07/22 08:38:07;;;;;;;;;;;;;;;;;;5118204;28;19916;-92
2023/07/22 08:40:33;;;;;;;;;;;;;;;;;;5116401;28;19916;-92
2023/07/22 08:42:59;;;;;;;;;;;;;;;;;;5113669;28;19990;-96
2023/07/22 08:45:27;;;;;;;;;;;;;;;;;;5107626;28;19924;-96
2023/07/22 08:47:55;;;;;;;;;;;;;;;;;;5109049;28;19924;-95
2023/07/22 08:50:42;;;;;;;;;;;;;;;;;;5119199;28;19930;-96
2023/07/22 08:53:50;;;;;;;;;;;;;;;;;;5113705;28;19920;-96
2023/07/22 08:56:16;;;;;;;;;;;;;;;;;;5115971;28;19955;-96
2023/07/22 08:58:43;;;;;;;;;;;;;;;;;;5113139;28;19981;-96
2023/07/22 09:01:09;;;;;;;;;;;;;;;;;;5112312;28;19920;-96
2023/07/22 09:03:35;;;;;;;;;;;;;;;;;;5106930;28;19920;-96
2023/07/22 09:06:01;;;;;;;;;;;;;;;;;;5106532;28;19927;-96
2023/07/22 09:08:26;;;;;;;;;;;;;;;;;;5108390;28;19916;-96
2023/07/22 09:10:52;;;;;;;;;;;;;;;;;;5118602;28;19931;-96
2023/07/22 09:13:18;;;;;;;;;;;;;;;;;;5119353;28;19951;-95
2023/07/22 09:15:44;;;;;;;;;;;;;;;;;;5113887;28;19920;-96
2023/07/22 09:18:10;;;;;;;;;;;;;;;;;;5107487;28;19916;-96
2023/07/22 09:20:35;;;;;;;;;;;;;;;;;;5102216;28;19963;-96
2023/07/22 09:23:01;;;;;;;;;;;;;;;;;;5104816;28;19916;-96
2023/07/22 09:25:27;;;;;;;;;;;;;;;;;;5098343;28;19960;-96
2023/07/22 09:27:55;;;;;;;;;;;;;;;;;;5101638;28;19924;-96
2023/07/22 09:32:53;;;;;;;;;;;;;;;;;;5073298;28;19925;-96
2023/07/22 09:35:33;;;;;;;;;;;;;;;;;;5090754;22;19931;-96
2023/07/22 09:38:05;;;;;;;;;;;;;;;;;;5080618;23;19947;-96
2023/07/22 09:48:49;;;;;;;;;;;;;;;;;;5081471;22;19929;-96
2023/07/22 09:51:41;;;;;;;;;;;;;;;;;;5018703;28;19910;-96
2023/07/22 09:54:32;;;;;;;;;;;;;;;;;;5002068;28;19906;-94
2023/07/22 10:00:08;;;;;;;;;;;;;;;;;;5086033;22;19909;-94
2023/07/22 10:02:43;;;;;;;;;;;;;;;;;;5071493;22;19925;-96
2023/07/22 10:05:29;;;;;;;;;;;;;;;;;;5177151;22;19960;-96
2023/07/22 10:08:04;;;;;;;;;;;;;;;;;;5034114;28;19930;-96
2023/07/22 10:10:33;;;;;;;;;;;;;;;;;;5032189;28;19928;-96
2023/07/22 10:13:07;;;;;;;;;;;;;;;;;;5029700;28;19977;-96
2023/07/22 10:15:34;;;;;;;;;;;;;;;;;;5030117;28;19917;-96
2023/07/22 10:18:00;;;;;;;;;;;;;;;;;;5027326;28;19917;-96
2023/07/22 10:21:04;;;;;;;;;;;;;;;;;;5099181;22;19932;-96
2023/07/22 10:23:59;;;;;;;;;;;;;;;;;;5143353;22;19909;-94
2023/07/22 10:26:29;;;;;;;;;;;;;;;;;;5091224;28;19916;-94
2023/07/22 10:29:01;;;;;;;;;;;;;;;;;;5108878;22;19917;-95
2023/07/22 14:27:59;;;;;;;;;;;;;;;;;;5356361;22;19925;-85
2023/07/22 14:30:24;;;;;;;;;;;;;;;;;;5036118;28;19921;-83
2023/07/22 14:32:50;;;;;;;;;;;;;;;;;;5033809;28;19917;-84
2023/07/22 14:35:15;;;;;;;;;;;;;;;;;;5034135;28;19917;-86
